createdAt,value
2018-06-13T00:00:57.743Z,16.17
2018-06-13T00:03:25.732Z,16.19
2018-06-13T00:05:53.716Z,16.24
2018-06-13T00:08:21.709Z,16.16
2018-06-13T00:10:49.688Z,15.89
2018-06-13T00:13:17.696Z,15.96
2018-06-13T00:15:45.673Z,16.15
2018-06-13T00:18:13.669Z,16.01
2018-06-13T00:20:41.636Z,15.95
2018-06-13T00:23:09.672Z,16.03
2018-06-13T00:25:37.656Z,16.01
2018-06-13T00:28:05.756Z,15.98
2018-06-13T00:30:33.765Z,16.00
2018-06-13T00:33:01.771Z,15.90
2018-06-13T00:35:29.780Z,15.97
2018-06-13T00:37:57.823Z,15.84
2018-06-13T00:40:25.947Z,15.86
2018-06-13T00:42:53.932Z,15.77
2018-06-13T00:45:21.916Z,15.61
2018-06-13T00:47:49.921Z,15.56
2018-06-13T00:50:17.967Z,15.71
2018-06-13T00:52:45.976Z,15.68
2018-06-13T00:55:13.999Z,15.71
2018-06-13T00:57:41.972Z,15.78
2018-06-13T01:00:09.979Z,15.81
2018-06-13T01:02:37.968Z,15.85
2018-06-13T01:05:05.993Z,15.78
2018-06-13T01:07:34.005Z,15.85
2018-06-13T01:10:02.006Z,15.87
2018-06-13T01:12:30.004Z,15.86
2018-06-13T01:14:58.048Z,15.88
2018-06-13T01:17:26.074Z,15.95
2018-06-13T01:19:54.064Z,16.09
2018-06-13T01:22:22.086Z,16.05
2018-06-13T01:24:50.114Z,15.50
2018-06-13T01:27:18.105Z,15.51
2018-06-13T01:29:46.086Z,15.24
2018-06-13T01:32:14.145Z,14.99
2018-06-13T01:34:42.152Z,14.82
2018-06-13T01:37:10.159Z,14.63
2018-06-13T01:39:38.249Z,14.46
2018-06-13T01:42:06.273Z,14.50
2018-06-13T01:44:34.260Z,14.29
2018-06-13T01:47:02.284Z,14.23
2018-06-13T01:49:30.293Z,14.27
2018-06-13T01:51:58.269Z,14.44
2018-06-13T01:54:26.317Z,14.53
2018-06-13T01:56:54.308Z,14.66
2018-06-13T01:59:22.337Z,14.74
2018-06-13T02:01:50.327Z,14.85
2018-06-13T02:04:18.337Z,14.86
2018-06-13T02:06:46.368Z,14.84
2018-06-13T02:09:14.399Z,14.77
2018-06-13T02:11:42.376Z,14.80
2018-06-13T02:14:10.355Z,14.69
2018-06-13T02:16:38.349Z,14.64
2018-06-13T02:19:06.332Z,14.77
2018-06-13T02:21:34.342Z,14.73
2018-06-13T02:24:02.333Z,14.73
2018-06-13T02:26:30.344Z,14.65
2018-06-13T02:28:58.365Z,14.62
2018-06-13T02:31:26.395Z,14.56
2018-06-13T02:33:54.991Z,14.49
2018-06-13T02:36:22.981Z,14.45
2018-06-13T02:38:50.965Z,14.45
2018-06-13T02:41:18.925Z,14.12
2018-06-13T02:43:46.926Z,14.14
2018-06-13T02:48:42.137Z,14.37
2018-06-13T02:51:10.120Z,14.29
2018-06-13T02:53:38.229Z,13.95
2018-06-13T02:56:06.256Z,13.98
2018-06-13T02:58:34.258Z,13.90
2018-06-13T03:01:02.297Z,13.77
2018-06-13T03:03:30.277Z,13.95
2018-06-13T03:05:58.296Z,13.96
2018-06-13T03:11:05.841Z,13.92
2018-06-13T03:13:33.858Z,13.99
2018-06-13T03:16:01.892Z,14.15
2018-06-13T03:18:29.908Z,14.15
2018-06-13T03:20:58.029Z,13.97
2018-06-13T03:23:26.024Z,13.77
2018-06-13T03:25:54.041Z,13.75
2018-06-13T03:28:22.820Z,13.71
2018-06-13T03:30:50.829Z,13.84
2018-06-13T03:35:51.345Z,13.80
2018-06-13T03:38:19.384Z,13.62
2018-06-13T03:40:47.444Z,13.65
2018-06-13T03:43:15.432Z,13.71
2018-06-13T03:45:43.445Z,13.77
2018-06-13T03:48:11.463Z,13.76
2018-06-13T03:50:39.456Z,13.89
2018-06-13T03:53:07.480Z,13.98
2018-06-13T03:55:35.476Z,13.84
2018-06-13T03:58:03.488Z,13.94
2018-06-13T04:00:31.486Z,14.00
2018-06-13T04:02:59.524Z,14.07
2018-06-13T04:05:27.561Z,13.91
2018-06-13T04:07:55.554Z,14.03
2018-06-13T04:10:23.594Z,13.98
2018-06-13T04:12:51.562Z,14.06
2018-06-13T04:15:19.574Z,14.15
2018-06-13T04:17:47.583Z,14.24
2018-06-13T04:20:15.617Z,14.34
2018-06-13T04:22:43.604Z,14.42
2018-06-13T04:25:11.617Z,14.38
2018-06-13T04:27:39.609Z,14.31
2018-06-13T04:30:07.701Z,14.58
2018-06-13T04:32:35.712Z,14.75
2018-06-13T04:35:03.768Z,14.60
2018-06-13T04:37:31.801Z,14.52
2018-06-13T04:39:59.853Z,14.43
2018-06-13T04:42:27.860Z,14.46
2018-06-13T04:44:55.872Z,14.77
2018-06-13T04:47:23.893Z,14.91
2018-06-13T04:49:52.053Z,14.64
2018-06-13T04:52:20.041Z,14.49
2018-06-13T04:54:48.077Z,14.42
2018-06-13T04:57:16.180Z,14.51
2018-06-13T04:59:44.169Z,14.71
2018-06-13T05:02:12.192Z,14.68
2018-06-13T05:04:40.304Z,14.75
2018-06-13T05:07:08.329Z,14.67
2018-06-13T05:09:36.333Z,14.40
2018-06-13T05:12:04.373Z,14.50
2018-06-13T05:14:32.457Z,14.56
2018-06-13T05:17:00.461Z,14.69
2018-06-13T05:19:28.789Z,14.88
2018-06-13T05:21:56.823Z,14.87
2018-06-13T05:24:24.869Z,14.92
2018-06-13T05:26:52.882Z,15.11
2018-06-13T05:29:20.885Z,15.05
2018-06-13T05:31:48.957Z,14.93
2018-06-13T05:34:16.968Z,14.98
2018-06-13T05:36:44.968Z,14.96
2018-06-13T05:39:12.992Z,14.91
2018-06-13T05:41:41.212Z,14.80
2018-06-13T05:44:09.274Z,14.95
2018-06-13T05:46:37.421Z,15.06
2018-06-13T05:49:05.416Z,15.11
2018-06-13T05:51:33.439Z,15.26
2018-06-13T05:54:01.469Z,15.14
2018-06-13T05:56:29.573Z,15.31
2018-06-13T05:58:57.598Z,15.38
2018-06-13T06:01:25.621Z,15.49
2018-06-13T06:03:54.079Z,15.76
2018-06-13T06:06:22.066Z,15.89
2018-06-13T06:08:50.090Z,16.02
2018-06-13T06:11:18.104Z,16.10
2018-06-13T06:13:46.076Z,16.47
2018-06-13T06:16:14.131Z,16.62
2018-06-13T06:18:42.125Z,16.63
2018-06-13T06:21:10.138Z,16.88
2018-06-13T06:23:38.232Z,16.76
2018-06-13T06:26:06.168Z,16.87
2018-06-13T06:28:35.464Z,17.02
2018-06-13T06:31:03.477Z,17.41
2018-06-13T06:33:31.534Z,17.41
2018-06-13T06:35:59.522Z,17.63
2018-06-13T06:38:27.644Z,18.00
2018-06-13T06:40:55.646Z,18.35
2018-06-13T06:43:23.669Z,18.47
2018-06-13T06:45:51.650Z,18.50
2018-06-13T06:48:19.648Z,18.32
2018-06-13T06:50:47.643Z,18.00
2018-06-13T06:53:15.659Z,17.93
2018-06-13T06:55:43.689Z,18.02
2018-06-13T06:58:11.693Z,18.20
2018-06-13T07:00:39.787Z,18.11
2018-06-13T07:03:07.965Z,17.92
2018-06-13T07:05:35.971Z,17.86
2018-06-13T07:08:04.040Z,18.65
2018-06-13T07:10:32.050Z,19.20
2018-06-13T07:13:00.051Z,19.39
2018-06-13T07:15:28.053Z,19.34
2018-06-13T07:17:56.101Z,19.03
2018-06-13T07:20:24.085Z,19.16
2018-06-13T07:22:52.136Z,19.05
2018-06-13T07:25:20.149Z,18.92
2018-06-13T07:27:48.154Z,18.42
2018-06-13T07:30:16.174Z,18.05
2018-06-13T07:32:44.210Z,17.91
2018-06-13T07:35:12.195Z,17.74
2018-06-13T07:37:40.209Z,17.73
2018-06-13T07:40:08.203Z,17.70
2018-06-13T07:42:36.224Z,17.48
2018-06-13T07:45:04.257Z,17.49
2018-06-13T07:47:32.359Z,17.27
2018-06-13T07:50:00.367Z,17.36
2018-06-13T07:52:28.383Z,17.17
2018-06-13T07:54:56.374Z,17.18
2018-06-13T07:57:24.365Z,17.29
2018-06-13T07:59:52.408Z,17.53
2018-06-13T08:02:20.448Z,17.76
2018-06-13T08:04:48.417Z,17.45
2018-06-13T08:07:16.405Z,17.60
2018-06-13T08:09:44.411Z,17.57
2018-06-13T08:12:12.408Z,17.52
2018-06-13T08:14:40.749Z,17.70
2018-06-13T08:17:08.766Z,17.98
2018-06-13T08:19:36.777Z,18.23
2018-06-13T08:22:04.759Z,18.39
2018-06-13T08:24:44.341Z,18.57
2018-06-13T08:27:12.351Z,18.59
2018-06-13T08:29:40.356Z,18.84
2018-06-13T08:32:08.384Z,18.91
2018-06-13T08:34:36.457Z,18.76
2018-06-13T08:37:04.429Z,18.48
2018-06-13T08:39:32.472Z,18.40
2018-06-13T08:42:00.528Z,18.35
2018-06-13T08:44:28.724Z,18.26
2018-06-13T08:46:56.795Z,17.83
2018-06-13T08:49:24.802Z,17.87
2018-06-13T08:51:52.887Z,17.86
2018-06-13T08:54:20.887Z,18.02
2018-06-13T08:56:48.854Z,17.97
2018-06-13T08:59:16.861Z,17.84
2018-06-13T09:01:44.950Z,17.62
2018-06-13T09:04:12.974Z,17.72
2018-06-13T09:06:41.033Z,17.69
2018-06-13T09:09:09.109Z,17.74
2018-06-13T09:11:37.494Z,17.96
2018-06-13T09:14:05.889Z,18.02
2018-06-13T09:16:33.876Z,18.07
2018-06-13T09:19:01.909Z,18.08
2018-06-13T09:21:29.894Z,18.28
2018-06-13T09:23:57.955Z,18.46
2018-06-13T09:26:25.955Z,18.50
2018-06-13T09:28:53.938Z,18.40
2018-06-13T09:31:21.933Z,18.33
2018-06-13T09:33:50.051Z,18.51
2018-06-13T09:36:18.024Z,18.75
2018-06-13T09:38:46.157Z,19.17
2018-06-13T09:41:14.168Z,19.50
2018-06-13T09:43:42.193Z,19.77
2018-06-13T09:46:12.016Z,19.68
2018-06-13T09:48:38.234Z,19.19
2018-06-13T09:51:06.244Z,18.80
2018-06-13T09:53:34.240Z,18.65
2018-06-13T09:56:02.260Z,18.64
2018-06-13T09:58:34.438Z,18.12
2018-06-13T10:01:08.276Z,18.11
2018-06-13T10:03:36.467Z,18.16
2018-06-13T10:06:04.504Z,18.23
2018-06-13T10:08:32.484Z,18.12
2018-06-13T10:11:00.489Z,17.95
2018-06-13T10:13:28.512Z,17.83
2018-06-13T10:15:56.524Z,17.89
2018-06-13T10:18:24.551Z,17.86
2018-06-13T10:20:52.542Z,17.87
2018-06-13T10:23:20.550Z,17.91
2018-06-13T10:25:48.534Z,17.92
2018-06-13T10:28:16.653Z,18.19
2018-06-13T10:30:44.648Z,18.56
2018-06-13T10:33:12.632Z,18.74
2018-06-13T10:35:40.652Z,18.91
2018-06-13T10:38:08.657Z,18.97
2018-06-13T10:40:36.725Z,19.35
2018-06-13T10:43:04.785Z,19.58
2018-06-13T10:45:32.810Z,19.63
2018-06-13T10:48:00.800Z,19.86
2018-06-13T10:50:28.799Z,19.73
2018-06-13T10:52:57.526Z,19.65
2018-06-13T10:55:25.706Z,19.66
2018-06-13T10:57:53.710Z,19.93
2018-06-13T11:00:21.733Z,19.65
2018-06-13T11:02:49.717Z,19.70
2018-06-13T11:05:17.956Z,19.72
2018-06-13T11:07:45.931Z,19.72
2018-06-13T11:10:13.944Z,19.81
2018-06-13T11:12:41.913Z,19.94
2018-06-13T11:15:09.944Z,20.02
2018-06-13T11:17:37.957Z,20.19
2018-06-13T11:20:05.976Z,20.34
2018-06-13T11:22:33.982Z,20.64
2018-06-13T11:25:01.985Z,20.80
2018-06-13T11:27:29.978Z,20.38
2018-06-13T11:29:58.010Z,20.13
2018-06-13T11:32:26.064Z,20.08
2018-06-13T11:34:59.358Z,19.98
2018-06-13T11:37:27.891Z,19.54
2018-06-13T11:39:56.097Z,19.14
2018-06-13T11:42:24.159Z,19.19
2018-06-13T11:44:52.242Z,19.37
2018-06-13T11:47:20.326Z,19.30
2018-06-13T11:49:48.341Z,19.23
2018-06-13T11:52:16.361Z,19.34
2018-06-13T11:54:44.382Z,19.70
2018-06-13T11:57:13.232Z,19.69
2018-06-13T11:59:41.231Z,19.54
2018-06-13T12:02:09.324Z,19.06
2018-06-13T12:04:37.428Z,18.86
2018-06-13T12:07:05.427Z,18.80
2018-06-13T12:09:33.415Z,18.97
2018-06-13T12:12:01.390Z,19.18
2018-06-13T12:14:29.421Z,19.17
2018-06-13T12:16:57.469Z,19.18
2018-06-13T12:19:25.521Z,19.34
2018-06-13T12:21:53.500Z,19.33
2018-06-13T12:24:21.524Z,19.48
2018-06-13T12:26:49.565Z,19.77
2018-06-13T12:29:17.565Z,19.83
2018-06-13T12:31:45.579Z,20.01
2018-06-13T12:34:13.625Z,20.29
2018-06-13T12:36:41.676Z,20.27
2018-06-13T12:39:11.140Z,20.40
2018-06-13T12:41:39.841Z,20.47
2018-06-13T12:44:07.856Z,20.65
2018-06-13T12:46:36.271Z,20.59
2018-06-13T12:49:04.256Z,20.61
2018-06-13T12:51:32.261Z,20.75
2018-06-13T12:54:00.945Z,20.71
2018-06-13T12:56:28.988Z,21.08
2018-06-13T12:58:57.118Z,21.19
2018-06-13T13:01:25.029Z,21.43
2018-06-13T13:03:53.009Z,21.32
2018-06-13T13:06:21.019Z,21.26
2018-06-13T13:08:49.099Z,21.33
2018-06-13T13:11:17.086Z,21.18
2018-06-13T13:13:45.080Z,20.92
2018-06-13T13:16:13.116Z,20.87
2018-06-13T13:18:41.116Z,20.64
2018-06-13T13:21:09.148Z,20.61
2018-06-13T13:23:37.148Z,20.39
2018-06-13T13:26:05.157Z,20.62
2018-06-13T13:28:33.160Z,20.90
2018-06-13T13:31:01.281Z,21.12
2018-06-13T13:33:29.268Z,21.44
2018-06-13T13:35:57.356Z,21.46
2018-06-13T13:38:25.344Z,21.52
2018-06-13T13:40:53.427Z,21.23
2018-06-13T13:43:21.496Z,20.83
2018-06-13T13:45:49.581Z,20.80
2018-06-13T13:48:17.558Z,20.14
2018-06-13T13:50:45.557Z,19.85
2018-06-13T13:53:13.565Z,19.56
2018-06-13T13:55:41.660Z,19.41
2018-06-13T13:58:09.361Z,19.11
2018-06-13T14:00:37.366Z,18.95
2018-06-13T14:03:05.460Z,18.85
2018-06-13T14:05:33.437Z,18.86
2018-06-13T14:08:01.473Z,18.81
2018-06-13T14:10:29.529Z,18.83
2018-06-13T14:12:57.589Z,18.75
2018-06-13T14:15:25.599Z,18.92
2018-06-13T14:17:53.657Z,18.88
2018-06-13T14:20:21.640Z,19.13
2018-06-13T14:22:49.664Z,19.44
2018-06-13T14:25:17.666Z,19.73
2018-06-13T14:27:45.659Z,20.29
2018-06-13T14:30:13.698Z,21.01
2018-06-13T14:32:41.700Z,21.26
2018-06-13T14:35:09.877Z,21.33
2018-06-13T14:37:37.889Z,21.21
2018-06-13T14:40:05.911Z,21.51
2018-06-13T14:42:33.925Z,21.56
2018-06-13T14:45:01.928Z,21.57
2018-06-13T14:47:29.928Z,21.64
2018-06-13T14:49:57.921Z,21.57
2018-06-13T14:52:25.946Z,21.15
2018-06-13T14:54:54.002Z,21.10
2018-06-13T14:57:22.000Z,21.13
2018-06-13T14:59:49.988Z,21.09
2018-06-13T15:02:17.982Z,21.25
2018-06-13T15:04:45.988Z,21.33
2018-06-13T15:07:13.996Z,21.24
2018-06-13T15:09:42.068Z,21.01
2018-06-13T15:12:10.068Z,21.16
2018-06-13T15:14:38.091Z,21.25
2018-06-13T15:17:06.119Z,21.09
2018-06-13T15:19:34.108Z,20.82
2018-06-13T15:22:02.121Z,20.82
2018-06-13T15:24:30.124Z,21.02
2018-06-13T15:26:58.168Z,20.82
2018-06-13T15:29:26.213Z,20.60
2018-06-13T15:31:54.285Z,20.55
2018-06-13T15:34:22.288Z,20.58
2018-06-13T15:36:50.318Z,20.38
2018-06-13T15:39:18.356Z,20.25
2018-06-13T15:41:46.364Z,20.30
2018-06-13T15:44:14.367Z,20.28
2018-06-13T15:46:42.583Z,20.59
2018-06-13T15:49:10.604Z,20.69
2018-06-13T15:51:38.793Z,20.73
2018-06-13T15:54:06.869Z,20.88
2018-06-13T15:56:34.917Z,20.95
2018-06-13T15:59:02.957Z,20.91
2018-06-13T16:01:31.160Z,20.70
2018-06-13T16:03:59.194Z,20.60
2018-06-13T16:06:27.200Z,20.41
2018-06-13T16:08:55.309Z,20.27
2018-06-13T16:11:23.422Z,20.04
2018-06-13T16:13:51.476Z,19.88
2018-06-13T16:16:19.489Z,19.79
2018-06-13T16:18:47.527Z,20.03
2018-06-13T16:21:15.537Z,20.19
2018-06-13T16:23:43.579Z,20.20
2018-06-13T16:26:11.617Z,20.39
2018-06-13T16:28:39.657Z,20.33
2018-06-13T16:31:07.696Z,20.19
2018-06-13T16:33:35.705Z,20.20
2018-06-13T16:36:03.711Z,20.10
2018-06-13T16:38:31.850Z,20.10
2018-06-13T16:40:59.969Z,19.86
2018-06-13T16:43:27.958Z,20.14
2018-06-13T16:45:55.942Z,20.21
2018-06-13T16:48:23.964Z,20.46
2018-06-13T16:51:03.480Z,20.44
2018-06-13T16:53:56.833Z,20.76
2018-06-13T16:56:24.858Z,20.93
2018-06-13T16:58:52.949Z,20.83
2018-06-13T17:01:21.424Z,20.71
2018-06-13T17:03:49.412Z,20.55
2018-06-13T17:06:17.456Z,20.28
2018-06-13T17:08:45.735Z,20.16
2018-06-13T17:11:13.725Z,20.14
2018-06-13T17:13:41.723Z,20.00
2018-06-13T17:16:09.717Z,19.89
2018-06-13T17:18:37.753Z,19.53
2018-06-13T17:21:05.876Z,19.19
2018-06-13T17:23:34.059Z,19.17
2018-06-13T17:26:02.105Z,19.36
2018-06-13T17:28:30.228Z,19.40
2018-06-13T17:30:58.396Z,19.51
2018-06-13T17:33:26.482Z,19.54
2018-06-13T17:35:54.517Z,19.45
2018-06-13T17:38:22.532Z,19.52
2018-06-13T17:40:51.557Z,19.40
2018-06-13T17:43:19.597Z,19.27
2018-06-13T17:45:47.652Z,19.20
2018-06-13T17:48:15.641Z,19.20
2018-06-13T17:50:43.629Z,19.05
2018-06-13T17:53:11.680Z,19.09
2018-06-13T17:55:39.847Z,18.80
2018-06-13T17:58:07.860Z,18.73
2018-06-13T18:00:35.866Z,18.57
2018-06-13T18:03:03.862Z,18.46
2018-06-13T18:05:31.964Z,18.53
2018-06-13T18:07:59.960Z,18.62
2018-06-13T18:10:27.960Z,18.67
2018-06-13T18:12:56.003Z,18.79
2018-06-13T18:15:24.004Z,18.91
2018-06-13T18:17:52.088Z,19.03
2018-06-13T18:20:20.117Z,19.10
2018-06-13T18:22:48.153Z,18.91
2018-06-13T18:25:16.181Z,19.01
2018-06-13T18:27:44.222Z,19.11
2018-06-13T18:30:12.242Z,19.10
2018-06-13T18:32:40.280Z,19.13
2018-06-13T18:35:08.493Z,19.03
2018-06-13T18:37:36.503Z,19.14
2018-06-13T18:40:04.641Z,19.08
2018-06-13T18:42:32.721Z,19.24
2018-06-13T18:45:00.728Z,19.17
2018-06-13T18:47:28.800Z,18.90
2018-06-13T18:49:56.800Z,18.81
2018-06-13T18:52:24.799Z,18.56
2018-06-13T18:54:52.772Z,18.50
2018-06-13T18:57:20.881Z,18.51
2018-06-13T18:59:48.993Z,18.25
2018-06-13T19:02:17.044Z,18.29
2018-06-13T19:04:45.057Z,18.24
2018-06-13T19:07:14.917Z,18.02
2018-06-13T19:09:42.964Z,17.99
2018-06-13T19:12:10.995Z,17.79
2018-06-13T19:14:39.137Z,17.70
2018-06-13T19:17:07.316Z,17.78
2018-06-13T19:19:35.408Z,17.65
2018-06-13T19:22:03.626Z,17.68
2018-06-13T19:24:31.661Z,17.74
2018-06-13T19:26:59.653Z,17.72
2018-06-13T19:29:28.636Z,17.76
2018-06-13T19:31:56.707Z,17.84
2018-06-13T19:34:24.718Z,17.74
2018-06-13T19:36:52.849Z,17.67
2018-06-13T19:39:21.138Z,17.63
2018-06-13T19:41:49.094Z,17.47
2018-06-13T19:44:17.080Z,17.48
2018-06-13T19:46:45.074Z,17.47
2018-06-13T19:49:13.053Z,17.39
2018-06-13T19:51:41.093Z,17.38
2018-06-13T19:54:14.458Z,17.36
2018-06-13T19:56:42.476Z,17.32
2018-06-13T19:59:11.628Z,17.20
2018-06-13T20:01:39.639Z,17.17
2018-06-13T20:04:13.223Z,17.08
2018-06-13T20:06:41.282Z,16.89
2018-06-13T20:09:10.951Z,16.85
2018-06-13T20:11:39.244Z,16.80
2018-06-13T20:14:12.677Z,16.70
2018-06-13T20:16:50.254Z,16.55
2018-06-13T20:19:24.450Z,16.44
2018-06-13T20:21:53.254Z,16.48
2018-06-13T20:24:21.308Z,16.43
2018-06-13T20:26:54.752Z,16.39
2018-06-13T20:29:28.119Z,16.35
2018-06-13T20:31:56.108Z,16.27
2018-06-13T20:34:24.230Z,16.22
2018-06-13T20:36:52.356Z,16.18
2018-06-13T20:39:20.356Z,16.07
2018-06-13T20:41:48.364Z,16.01
2018-06-13T20:44:17.412Z,15.93
2018-06-13T20:46:45.445Z,15.77
2018-06-13T20:49:13.469Z,15.67
2018-06-13T20:51:41.469Z,15.63
2018-06-13T20:54:09.511Z,15.52
2018-06-13T20:56:37.532Z,15.50
2018-06-13T20:59:05.501Z,15.32
2018-06-13T21:01:33.508Z,15.08
2018-06-13T21:04:01.548Z,14.83
2018-06-13T21:06:29.575Z,14.78
2018-06-13T21:08:57.576Z,14.81
2018-06-13T21:11:25.564Z,14.67
2018-06-13T21:13:53.620Z,14.62
2018-06-13T21:16:21.654Z,14.61
2018-06-13T21:18:49.847Z,14.48
2018-06-13T21:21:17.897Z,14.45
2018-06-13T21:23:45.904Z,14.34
2018-06-13T21:26:13.916Z,14.31
2018-06-13T21:28:41.999Z,14.24
2018-06-13T21:31:09.922Z,14.27
2018-06-13T21:33:38.049Z,14.25
2018-06-13T21:36:06.072Z,14.09
2018-06-13T21:38:34.128Z,14.09
2018-06-13T21:41:02.144Z,13.81
2018-06-13T21:43:30.185Z,13.82
2018-06-13T21:45:58.341Z,13.78
2018-06-13T21:48:26.412Z,13.77
2018-06-13T21:50:54.773Z,13.74
2018-06-13T21:53:22.815Z,13.63
2018-06-13T21:55:50.864Z,13.57
2018-06-13T21:58:18.864Z,13.55
2018-06-13T22:00:46.904Z,13.46
2018-06-13T22:03:14.890Z,13.40
2018-06-13T22:05:42.906Z,13.22
2018-06-13T22:08:10.901Z,13.27
2018-06-13T22:10:38.909Z,13.20
2018-06-13T22:13:06.936Z,13.02
2018-06-13T22:15:34.920Z,13.08
2018-06-13T22:18:02.953Z,13.01
2018-06-13T22:20:30.962Z,12.88
2018-06-13T22:22:58.977Z,12.83
2018-06-13T22:25:27.012Z,12.87
2018-06-13T22:27:55.229Z,12.84
2018-06-13T22:30:23.346Z,12.80
2018-06-13T22:32:51.344Z,12.76
2018-06-13T22:35:19.361Z,12.64
2018-06-13T22:37:47.369Z,12.63
2018-06-13T22:40:15.411Z,12.63
2018-06-13T22:42:43.417Z,12.56
2018-06-13T22:45:11.413Z,12.49
2018-06-13T22:47:39.452Z,12.48
2018-06-13T22:50:07.469Z,12.52
2018-06-13T22:52:35.564Z,12.47
2018-06-13T22:55:03.992Z,12.44
2018-06-13T22:57:31.990Z,12.38
2018-06-13T23:00:00.054Z,12.42
2018-06-13T23:02:28.099Z,12.36
2018-06-13T23:04:56.088Z,12.38
2018-06-13T23:07:24.115Z,12.41
2018-06-13T23:09:52.112Z,12.47
2018-06-13T23:12:20.249Z,12.45
2018-06-13T23:14:48.255Z,12.43
2018-06-13T23:17:16.284Z,12.45
2018-06-13T23:19:44.358Z,12.54
2018-06-13T23:22:12.517Z,12.47
2018-06-13T23:24:40.528Z,12.61
2018-06-13T23:27:08.570Z,12.70
2018-06-13T23:29:36.540Z,12.79
2018-06-13T23:32:04.555Z,12.82
2018-06-13T23:34:32.554Z,12.90
2018-06-13T23:37:00.561Z,12.90
2018-06-13T23:39:28.827Z,12.98
2018-06-13T23:41:56.896Z,12.90
2018-06-13T23:44:24.902Z,12.91
2018-06-13T23:46:53.023Z,12.84
2018-06-13T23:49:21.010Z,12.85
2018-06-13T23:51:49.012Z,12.94
2018-06-13T23:54:17.034Z,12.98
2018-06-13T23:56:45.037Z,12.98
2018-06-13T23:59:13.032Z,12.88
